Santa Rita, Guam
Current Conditions -  °F | °C
As of 1:27 PM on Thursday 23 Oct 2014 (Local Time) from PGUM Reporting Station
Broken Clouds Broken Clouds  
Wind Chill: 88°   Ceiling: 3400
Heat Index: 100°   Visibility: 10mi
Dew Point: 77°   Wind: 10mph
Humidity: 70%   Direction: 50°NE
Pressure: 29.78"   Gusts: NA
Location:  13.39°N, 144.67°E
Report Text: PGUM 230327Z 05009KT 10SM SCT027 BKN034 31/25 A2978 RMK AO2 P0001
Loading
Personal Weather Stations






























Interactive Weather Map
Tropical Storm Tracking
New forecast layout! Learn more

10-Day Weather Forecast

Advertisements
Track Severe Weather on mobile